sensor_id;sensor_type;location;lat;lon;timestamp;temperature;humidity
1453;DHT22;720;47.738;7.998;2022-10-31T00:00:50;11.90;95.90
1453;DHT22;720;47.738;7.998;2022-10-31T00:03:16;12.00;95.70
1453;DHT22;720;47.738;7.998;2022-10-31T00:05:44;12.00;95.70
1453;DHT22;720;47.738;7.998;2022-10-31T00:08:10;12.00;95.80
1453;DHT22;720;47.738;7.998;2022-10-31T00:10:39;11.90;96.10
1453;DHT22;720;47.738;7.998;2022-10-31T00:13:06;11.80;96.50
1453;DHT22;720;47.738;7.998;2022-10-31T00:15:34;11.80;96.60
1453;DHT22;720;47.738;7.998;2022-10-31T00:17:59;11.80;96.80
1453;DHT22;720;47.738;7.998;2022-10-31T00:20:25;11.80;96.90
1453;DHT22;720;47.738;7.998;2022-10-31T00:22:51;11.90;96.80
1453;DHT22;720;47.738;7.998;2022-10-31T00:25:16;11.80;96.60
1453;DHT22;720;47.738;7.998;2022-10-31T00:27:42;11.80;96.60
1453;DHT22;720;47.738;7.998;2022-10-31T00:30:08;11.70;96.70
1453;DHT22;720;47.738;7.998;2022-10-31T00:32:33;11.70;96.90
1453;DHT22;720;47.738;7.998;2022-10-31T00:34:59;11.70;96.70
1453;DHT22;720;47.738;7.998;2022-10-31T00:37:25;11.80;96.60
1453;DHT22;720;47.738;7.998;2022-10-31T00:39:50;11.80;96.60
1453;DHT22;720;47.738;7.998;2022-10-31T00:42:16;11.70;96.80
1453;DHT22;720;47.738;7.998;2022-10-31T00:44:42;11.70;96.50
1453;DHT22;720;47.738;7.998;2022-10-31T00:47:07;11.80;96.60
1453;DHT22;720;47.738;7.998;2022-10-31T00:49:33;11.80;96.60
1453;DHT22;720;47.738;7.998;2022-10-31T00:51:58;11.80;96.50
1453;DHT22;720;47.738;7.998;2022-10-31T00:54:24;11.70;96.70
1453;DHT22;720;47.738;7.998;2022-10-31T00:56:50;11.70;96.90
1453;DHT22;720;47.738;7.998;2022-10-31T00:59:15;11.80;99.90
1453;DHT22;720;47.738;7.998;2022-10-31T01:01:41;11.70;97.10
1453;DHT22;720;47.738;7.998;2022-10-31T01:04:06;11.70;96.90
1453;DHT22;720;47.738;7.998;2022-10-31T01:06:32;11.60;96.70
1453;DHT22;720;47.738;7.998;2022-10-31T01:08:58;11.60;96.90
1453;DHT22;720;47.738;7.998;2022-10-31T01:11:23;11.60;97.00
1453;DHT22;720;47.738;7.998;2022-10-31T01:13:51;11.60;96.90
1453;DHT22;720;47.738;7.998;2022-10-31T01:16:19;11.60;96.80
1453;DHT22;720;47.738;7.998;2022-10-31T01:18:45;11.60;96.70
1453;DHT22;720;47.738;7.998;2022-10-31T01:21:16;11.70;96.70
1453;DHT22;720;47.738;7.998;2022-10-31T01:23:42;11.70;96.80
1453;DHT22;720;47.738;7.998;2022-10-31T01:26:28;11.70;96.60
1453;DHT22;720;47.738;7.998;2022-10-31T01:29:00;11.60;96.80
1453;DHT22;720;47.738;7.998;2022-10-31T01:31:29;11.60;96.90
1453;DHT22;720;47.738;7.998;2022-10-31T01:33:55;11.50;97.40
1453;DHT22;720;47.738;7.998;2022-10-31T01:36:29;11.40;97.70
1453;DHT22;720;47.738;7.998;2022-10-31T01:38:58;11.50;97.80
1453;DHT22;720;47.738;7.998;2022-10-31T01:41:30;11.60;97.60
1453;DHT22;720;47.738;7.998;2022-10-31T01:44:44;11.50;97.50
1453;DHT22;720;47.738;7.998;2022-10-31T01:46:52;11.50;97.50
1453;DHT22;720;47.738;7.998;2022-10-31T01:52:02;11.50;97.70
1453;DHT22;720;47.738;7.998;2022-10-31T01:54:35;11.60;97.60
1453;DHT22;720;47.738;7.998;2022-10-31T01:57:06;11.60;97.40
1453;DHT22;720;47.738;7.998;2022-10-31T01:59:35;11.50;97.50
1453;DHT22;720;47.738;7.998;2022-10-31T02:02:03;11.50;97.90
1453;DHT22;720;47.738;7.998;2022-10-31T02:04:29;11.50;97.70
1453;DHT22;720;47.738;7.998;2022-10-31T02:07:05;11.50;97.70
1453;DHT22;720;47.738;7.998;2022-10-31T02:09:32;11.50;97.70
1453;DHT22;720;47.738;7.998;2022-10-31T02:11:59;11.50;97.70
1453;DHT22;720;47.738;7.998;2022-10-31T02:14:27;11.50;97.70
1453;DHT22;720;47.738;7.998;2022-10-31T02:16:54;11.50;97.80
1453;DHT22;720;47.738;7.998;2022-10-31T02:19:39;11.90;99.90
1453;DHT22;720;47.738;7.998;2022-10-31T02:24:46;11.40;97.90
1453;DHT22;720;47.738;7.998;2022-10-31T02:30:12;11.50;98.00
1453;DHT22;720;47.738;7.998;2022-10-31T02:35:41;11.40;98.00
1453;DHT22;720;47.738;7.998;2022-10-31T02:41:26;11.50;98.10
1453;DHT22;720;47.738;7.998;2022-10-31T02:44:10;11.50;98.00
1453;DHT22;720;47.738;7.998;2022-10-31T02:49:24;11.50;97.90
1453;DHT22;720;47.738;7.998;2022-10-31T02:51:52;11.50;97.80
1453;DHT22;720;47.738;7.998;2022-10-31T02:54:28;11.50;98.00
1453;DHT22;720;47.738;7.998;2022-10-31T02:57:13;11.50;98.10
1453;DHT22;720;47.738;7.998;2022-10-31T02:59:47;11.40;98.20
1453;DHT22;720;47.738;7.998;2022-10-31T03:05:56;11.50;98.30
1453;DHT22;720;47.738;7.998;2022-10-31T03:08:40;11.50;98.30
1453;DHT22;720;47.738;7.998;2022-10-31T03:11:08;11.50;98.30
1453;DHT22;720;47.738;7.998;2022-10-31T03:13:43;11.60;98.20
1453;DHT22;720;47.738;7.998;2022-10-31T03:16:18;11.60;98.10
1453;DHT22;720;47.738;7.998;2022-10-31T03:18:57;11.60;98.00
1453;DHT22;720;47.738;7.998;2022-10-31T03:21:29;11.50;98.00
1453;DHT22;720;47.738;7.998;2022-10-31T03:23:57;11.40;98.30
1453;DHT22;720;47.738;7.998;2022-10-31T03:26:23;11.40;98.70
1453;DHT22;720;47.738;7.998;2022-10-31T03:29:11;11.50;98.80
1453;DHT22;720;47.738;7.998;2022-10-31T03:32:05;11.50;98.80
1453;DHT22;720;47.738;7.998;2022-10-31T03:34:33;11.40;98.80
1453;DHT22;720;47.738;7.998;2022-10-31T03:37:04;11.50;98.80
1453;DHT22;720;47.738;7.998;2022-10-31T03:39:31;11.50;98.60
1453;DHT22;720;47.738;7.998;2022-10-31T03:42:37;11.50;98.50
1453;DHT22;720;47.738;7.998;2022-10-31T03:44:57;11.50;98.50
1453;DHT22;720;47.738;7.998;2022-10-31T03:47:24;11.50;98.40
1453;DHT22;720;47.738;7.998;2022-10-31T03:49:50;11.60;98.40
1453;DHT22;720;47.738;7.998;2022-10-31T03:52:57;11.60;98.30
1453;DHT22;720;47.738;7.998;2022-10-31T03:55:37;11.70;98.20
1453;DHT22;720;47.738;7.998;2022-10-31T03:58:21;11.70;98.10
1453;DHT22;720;47.738;7.998;2022-10-31T04:00:51;11.70;98.20
1453;DHT22;720;47.738;7.998;2022-10-31T04:03:31;11.60;98.50
1453;DHT22;720;47.738;7.998;2022-10-31T04:06:00;11.70;98.30
1453;DHT22;720;47.738;7.998;2022-10-31T04:08:30;11.70;98.20
1453;DHT22;720;47.738;7.998;2022-10-31T04:10:57;11.60;98.20
1453;DHT22;720;47.738;7.998;2022-10-31T04:13:27;11.70;98.20
1453;DHT22;720;47.738;7.998;2022-10-31T04:15:55;11.70;98.00
1453;DHT22;720;47.738;7.998;2022-10-31T04:18:23;11.70;98.00
1453;DHT22;720;47.738;7.998;2022-10-31T04:20:49;11.70;98.00
1453;DHT22;720;47.738;7.998;2022-10-31T04:23:25;11.70;98.30
1453;DHT22;720;47.738;7.998;2022-10-31T04:25:51;11.70;98.30
1453;DHT22;720;47.738;7.998;2022-10-31T04:28:18;11.70;98.20
1453;DHT22;720;47.738;7.998;2022-10-31T04:30:44;11.70;98.20
1453;DHT22;720;47.738;7.998;2022-10-31T04:33:09;11.70;98.30
1453;DHT22;720;47.738;7.998;2022-10-31T04:35:36;11.70;98.20
1453;DHT22;720;47.738;7.998;2022-10-31T04:38:02;11.70;98.20
1453;DHT22;720;47.738;7.998;2022-10-31T04:40:28;11.70;98.20
1453;DHT22;720;47.738;7.998;2022-10-31T04:42:53;11.70;98.10
1453;DHT22;720;47.738;7.998;2022-10-31T04:45:19;11.70;98.00
1453;DHT22;720;47.738;7.998;2022-10-31T04:47:45;11.70;98.00
1453;DHT22;720;47.738;7.998;2022-10-31T04:50:10;11.60;98.30
1453;DHT22;720;47.738;7.998;2022-10-31T04:52:43;11.60;98.50
1453;DHT22;720;47.738;7.998;2022-10-31T04:55:11;11.60;98.50
1453;DHT22;720;47.738;7.998;2022-10-31T04:57:44;11.60;98.70
1453;DHT22;720;47.738;7.998;2022-10-31T05:00:11;11.60;98.70
1453;DHT22;720;47.738;7.998;2022-10-31T05:02:53;11.60;98.80
1453;DHT22;720;47.738;7.998;2022-10-31T05:05:21;11.50;98.70
1453;DHT22;720;47.738;7.998;2022-10-31T05:07:48;11.50;98.90
1453;DHT22;720;47.738;7.998;2022-10-31T05:10:17;11.50;98.90
1453;DHT22;720;47.738;7.998;2022-10-31T05:12:51;11.60;98.80
1453;DHT22;720;47.738;7.998;2022-10-31T05:15:17;11.50;98.70
1453;DHT22;720;47.738;7.998;2022-10-31T05:17:44;11.50;99.10
1453;DHT22;720;47.738;7.998;2022-10-31T05:20:11;11.50;99.30
1453;DHT22;720;47.738;7.998;2022-10-31T05:22:36;11.50;99.30
1453;DHT22;720;47.738;7.998;2022-10-31T05:25:03;11.40;99.20
1453;DHT22;720;47.738;7.998;2022-10-31T05:27:28;11.40;99.20
1453;DHT22;720;47.738;7.998;2022-10-31T05:29:54;11.40;99.20
1453;DHT22;720;47.738;7.998;2022-10-31T05:32:20;11.50;99.00
1453;DHT22;720;47.738;7.998;2022-10-31T05:34:45;11.40;98.80
1453;DHT22;720;47.738;7.998;2022-10-31T05:37:11;11.40;98.90
1453;DHT22;720;47.738;7.998;2022-10-31T05:39:37;11.30;99.20
1453;DHT22;720;47.738;7.998;2022-10-31T05:42:02;11.30;99.30
1453;DHT22;720;47.738;7.998;2022-10-31T05:44:29;11.30;99.40
1453;DHT22;720;47.738;7.998;2022-10-31T05:46:54;11.30;99.30
1453;DHT22;720;47.738;7.998;2022-10-31T05:49:20;11.50;99.90
1453;DHT22;720;47.738;7.998;2022-10-31T05:51:45;11.50;99.10
1453;DHT22;720;47.738;7.998;2022-10-31T05:54:11;11.50;99.00
1453;DHT22;720;47.738;7.998;2022-10-31T05:56:37;11.50;98.90
1453;DHT22;720;47.738;7.998;2022-10-31T05:59:02;11.40;98.90
1453;DHT22;720;47.738;7.998;2022-10-31T06:01:28;11.50;99.00
1453;DHT22;720;47.738;7.998;2022-10-31T06:03:53;11.40;98.90
1453;DHT22;720;47.738;7.998;2022-10-31T06:06:19;11.40;99.10
1453;DHT22;720;47.738;7.998;2022-10-31T06:08:45;11.40;99.20
1453;DHT22;720;47.738;7.998;2022-10-31T06:11:10;11.50;98.80
1453;DHT22;720;47.738;7.998;2022-10-31T06:13:36;11.60;98.70
1453;DHT22;720;47.738;7.998;2022-10-31T06:16:01;11.70;98.60
1453;DHT22;720;47.738;7.998;2022-10-31T06:18:27;11.70;98.60
1453;DHT22;720;47.738;7.998;2022-10-31T06:20:53;11.80;98.50
1453;DHT22;720;47.738;7.998;2022-10-31T06:23:18;11.90;98.20
1453;DHT22;720;47.738;7.998;2022-10-31T06:25:49;12.00;97.80
1453;DHT22;720;47.738;7.998;2022-10-31T06:28:15;12.10;97.90
1453;DHT22;720;47.738;7.998;2022-10-31T06:30:40;12.10;97.70
1453;DHT22;720;47.738;7.998;2022-10-31T06:33:06;12.20;97.60
1453;DHT22;720;47.738;7.998;2022-10-31T06:35:32;12.20;97.50
1453;DHT22;720;47.738;7.998;2022-10-31T06:37:58;12.30;98.00
1453;DHT22;720;47.738;7.998;2022-10-31T06:40:23;12.40;97.40
1453;DHT22;720;47.738;7.998;2022-10-31T06:43:00;12.60;97.30
1453;DHT22;720;47.738;7.998;2022-10-31T06:45:26;12.60;97.30
1453;DHT22;720;47.738;7.998;2022-10-31T06:47:53;12.80;97.20
1453;DHT22;720;47.738;7.998;2022-10-31T06:50:20;12.90;96.90
1453;DHT22;720;47.738;7.998;2022-10-31T06:52:53;13.00;96.70
1453;DHT22;720;47.738;7.998;2022-10-31T06:55:19;13.10;96.70
1453;DHT22;720;47.738;7.998;2022-10-31T06:57:52;13.20;97.00
1453;DHT22;720;47.738;7.998;2022-10-31T07:00:18;13.20;97.00
1453;DHT22;720;47.738;7.998;2022-10-31T07:02:51;13.20;97.10
1453;DHT22;720;47.738;7.998;2022-10-31T07:05:17;13.30;97.40
1453;DHT22;720;47.738;7.998;2022-10-31T07:07:43;13.30;96.90
1453;DHT22;720;47.738;7.998;2022-10-31T07:10:08;13.40;96.60
1453;DHT22;720;47.738;7.998;2022-10-31T07:12:34;13.50;96.50
1453;DHT22;720;47.738;7.998;2022-10-31T07:15:00;13.70;96.10
1453;DHT22;720;47.738;7.998;2022-10-31T07:17:25;13.90;95.90
1453;DHT22;720;47.738;7.998;2022-10-31T07:19:51;14.10;95.60
1453;DHT22;720;47.738;7.998;2022-10-31T07:22:16;14.30;95.60
1453;DHT22;720;47.738;7.998;2022-10-31T07:24:42;14.50;95.60
1453;DHT22;720;47.738;7.998;2022-10-31T07:27:08;14.90;95.50
1453;DHT22;720;47.738;7.998;2022-10-31T07:29:33;15.20;94.40
1453;DHT22;720;47.738;7.998;2022-10-31T07:31:59;15.50;94.00
1453;DHT22;720;47.738;7.998;2022-10-31T07:34:25;15.80;94.10
1453;DHT22;720;47.738;7.998;2022-10-31T07:36:51;16.20;93.80
1453;DHT22;720;47.738;7.998;2022-10-31T07:39:17;17.10;99.90
1453;DHT22;720;47.738;7.998;2022-10-31T07:41:42;16.90;93.10
1453;DHT22;720;47.738;7.998;2022-10-31T07:44:08;17.10;92.70
1453;DHT22;720;47.738;7.998;2022-10-31T07:46:34;17.20;92.40
1453;DHT22;720;47.738;7.998;2022-10-31T07:48:59;17.30;92.30
1453;DHT22;720;47.738;7.998;2022-10-31T07:51:25;17.40;92.20
1453;DHT22;720;47.738;7.998;2022-10-31T07:53:51;17.50;92.20
1453;DHT22;720;47.738;7.998;2022-10-31T07:56:17;17.70;92.10
1453;DHT22;720;47.738;7.998;2022-10-31T07:58:43;17.90;91.80
1453;DHT22;720;47.738;7.998;2022-10-31T08:01:08;18.00;91.80
1453;DHT22;720;47.738;7.998;2022-10-31T08:03:34;18.00;91.60
1453;DHT22;720;47.738;7.998;2022-10-31T08:05:59;18.00;91.40
1453;DHT22;720;47.738;7.998;2022-10-31T08:08:25;18.00;91.20
1453;DHT22;720;47.738;7.998;2022-10-31T08:10:53;18.00;91.10
1453;DHT22;720;47.738;7.998;2022-10-31T08:13:19;18.00;91.50
1453;DHT22;720;47.738;7.998;2022-10-31T08:15:45;18.10;91.60
1453;DHT22;720;47.738;7.998;2022-10-31T08:18:15;18.30;91.70
1453;DHT22;720;47.738;7.998;2022-10-31T08:20:42;18.50;91.70
1453;DHT22;720;47.738;7.998;2022-10-31T08:23:09;18.70;91.50
1453;DHT22;720;47.738;7.998;2022-10-31T08:25:35;19.10;91.10
1453;DHT22;720;47.738;7.998;2022-10-31T08:28:01;19.40;91.00
1453;DHT22;720;47.738;7.998;2022-10-31T08:30:28;19.50;90.80
1453;DHT22;720;47.738;7.998;2022-10-31T08:33:03;19.60;90.50
1453;DHT22;720;47.738;7.998;2022-10-31T08:35:29;19.70;90.10
1453;DHT22;720;47.738;7.998;2022-10-31T08:37:56;19.70;89.90
1453;DHT22;720;47.738;7.998;2022-10-31T08:40:23;19.70;89.70
1453;DHT22;720;47.738;7.998;2022-10-31T08:42:59;19.80;89.20
1453;DHT22;720;47.738;7.998;2022-10-31T08:45:25;19.90;88.30
1453;DHT22;720;47.738;7.998;2022-10-31T08:47:51;20.00;88.40
1453;DHT22;720;47.738;7.998;2022-10-31T08:50:17;20.20;88.50
1453;DHT22;720;47.738;7.998;2022-10-31T08:52:42;20.30;86.40
1453;DHT22;720;47.738;7.998;2022-10-31T08:55:08;20.40;85.10
1453;DHT22;720;47.738;7.998;2022-10-31T08:57:34;20.60;84.50
1453;DHT22;720;47.738;7.998;2022-10-31T08:59:59;20.80;84.60
1453;DHT22;720;47.738;7.998;2022-10-31T09:02:25;21.10;85.00
1453;DHT22;720;47.738;7.998;2022-10-31T09:04:51;21.30;84.70
1453;DHT22;720;47.738;7.998;2022-10-31T09:07:16;21.40;84.50
1453;DHT22;720;47.738;7.998;2022-10-31T09:09:42;21.50;84.00
1453;DHT22;720;47.738;7.998;2022-10-31T09:12:08;21.60;83.70
1453;DHT22;720;47.738;7.998;2022-10-31T09:14:33;21.70;84.30
1453;DHT22;720;47.738;7.998;2022-10-31T09:16:59;21.80;84.30
1453;DHT22;720;47.738;7.998;2022-10-31T09:19:24;21.50;96.00
1453;DHT22;720;47.738;7.998;2022-10-31T09:21:54;21.80;84.10
1453;DHT22;720;47.738;7.998;2022-10-31T09:24:19;21.80;84.20
1453;DHT22;720;47.738;7.998;2022-10-31T09:26:45;21.90;84.30
1453;DHT22;720;47.738;7.998;2022-10-31T09:29:11;21.90;84.10
1453;DHT22;720;47.738;7.998;2022-10-31T09:31:37;22.00;84.60
1453;DHT22;720;47.738;7.998;2022-10-31T09:34:02;22.10;84.40
1453;DHT22;720;47.738;7.998;2022-10-31T09:36:28;22.20;84.10
1453;DHT22;720;47.738;7.998;2022-10-31T09:38:53;22.30;83.70
1453;DHT22;720;47.738;7.998;2022-10-31T09:42:01;22.30;83.40
1453;DHT22;720;47.738;7.998;2022-10-31T09:44:30;22.50;83.10
1453;DHT22;720;47.738;7.998;2022-10-31T09:47:09;22.60;81.80
1453;DHT22;720;47.738;7.998;2022-10-31T09:50:06;22.80;79.60
1453;DHT22;720;47.738;7.998;2022-10-31T09:52:39;22.90;79.70
1453;DHT22;720;47.738;7.998;2022-10-31T09:55:17;23.20;80.30
1453;DHT22;720;47.738;7.998;2022-10-31T09:57:44;23.50;79.30
1453;DHT22;720;47.738;7.998;2022-10-31T10:00:21;23.80;77.10
1453;DHT22;720;47.738;7.998;2022-10-31T10:03:07;24.00;75.10
1453;DHT22;720;47.738;7.998;2022-10-31T10:05:54;24.00;74.30
1453;DHT22;720;47.738;7.998;2022-10-31T10:08:32;24.10;74.10
1453;DHT22;720;47.738;7.998;2022-10-31T10:25:40;23.60;73.80
1453;DHT22;720;47.738;7.998;2022-10-31T10:28:27;23.40;73.90
1453;DHT22;720;47.738;7.998;2022-10-31T10:36:29;22.80;76.50
1453;DHT22;720;47.738;7.998;2022-10-31T10:39:04;22.60;77.90
1453;DHT22;720;47.738;7.998;2022-10-31T10:41:32;22.40;79.40
1453;DHT22;720;47.738;7.998;2022-10-31T10:43:58;22.20;78.50
1453;DHT22;720;47.738;7.998;2022-10-31T10:46:32;21.80;77.10
1453;DHT22;720;47.738;7.998;2022-10-31T11:02:43;21.40;84.20
1453;DHT22;720;47.738;7.998;2022-10-31T11:05:20;21.30;82.40
1453;DHT22;720;47.738;7.998;2022-10-31T11:07:47;21.30;80.90
1453;DHT22;720;47.738;7.998;2022-10-31T11:10:15;21.30;80.60
1453;DHT22;720;47.738;7.998;2022-10-31T11:12:43;21.40;79.00
1453;DHT22;720;47.738;7.998;2022-10-31T11:15:22;21.60;80.60
1453;DHT22;720;47.738;7.998;2022-10-31T11:17:52;21.90;80.80
1453;DHT22;720;47.738;7.998;2022-10-31T11:22:47;21.70;70.50
1453;DHT22;720;47.738;7.998;2022-10-31T11:27:45;21.40;71.80
1453;DHT22;720;47.738;7.998;2022-10-31T11:30:13;21.50;72.60
1453;DHT22;720;47.738;7.998;2022-10-31T11:32:45;21.70;72.00
1453;DHT22;720;47.738;7.998;2022-10-31T11:35:15;21.80;71.20
1453;DHT22;720;47.738;7.998;2022-10-31T11:37:44;21.90;71.10
1453;DHT22;720;47.738;7.998;2022-10-31T11:40:24;22.00;70.30
1453;DHT22;720;47.738;7.998;2022-10-31T11:42:53;22.00;70.40
1453;DHT22;720;47.738;7.998;2022-10-31T11:45:29;22.10;70.90
1453;DHT22;720;47.738;7.998;2022-10-31T11:47:57;22.30;68.90
1453;DHT22;720;47.738;7.998;2022-10-31T11:52:53;22.70;68.80
1453;DHT22;720;47.738;7.998;2022-10-31T11:55:37;22.80;75.30
1453;DHT22;720;47.738;7.998;2022-10-31T11:58:03;22.70;72.20
1453;DHT22;720;47.738;7.998;2022-10-31T12:00:32;22.70;74.20
1453;DHT22;720;47.738;7.998;2022-10-31T12:06:05;22.50;70.20
1453;DHT22;720;47.738;7.998;2022-10-31T12:08:34;22.30;71.80
1453;DHT22;720;47.738;7.998;2022-10-31T12:22:15;21.80;69.40
1453;DHT22;720;47.738;7.998;2022-10-31T12:30:21;21.40;74.70
1453;DHT22;720;47.738;7.998;2022-10-31T12:41:08;20.50;76.00
1453;DHT22;720;47.738;7.998;2022-10-31T12:47:11;20.20;73.70
1453;DHT22;720;47.738;7.998;2022-10-31T12:55:53;19.80;70.60
1453;DHT22;720;47.738;7.998;2022-10-31T12:58:33;19.80;70.10
1453;DHT22;720;47.738;7.998;2022-10-31T13:01:59;19.80;70.40
1453;DHT22;720;47.738;7.998;2022-10-31T13:04:09;19.80;68.60
1453;DHT22;720;47.738;7.998;2022-10-31T13:06:48;19.70;68.10
1453;DHT22;720;47.738;7.998;2022-10-31T13:09:21;19.60;68.60
1453;DHT22;720;47.738;7.998;2022-10-31T13:11:53;19.60;67.10
1453;DHT22;720;47.738;7.998;2022-10-31T13:14:32;19.50;69.10
1453;DHT22;720;47.738;7.998;2022-10-31T13:16:59;19.50;72.30
1453;DHT22;720;47.738;7.998;2022-10-31T13:19:35;19.30;84.00
1453;DHT22;720;47.738;7.998;2022-10-31T13:22:04;19.40;70.30
1453;DHT22;720;47.738;7.998;2022-10-31T13:25:09;19.30;67.60
1453;DHT22;720;47.738;7.998;2022-10-31T13:27:48;19.20;69.80
1453;DHT22;720;47.738;7.998;2022-10-31T13:30:20;19.20;66.90
1453;DHT22;720;47.738;7.998;2022-10-31T13:40:57;19.00;71.60
1453;DHT22;720;47.738;7.998;2022-10-31T13:46:35;19.20;70.20
1453;DHT22;720;47.738;7.998;2022-10-31T13:49:01;19.30;71.30
1453;DHT22;720;47.738;7.998;2022-10-31T13:51:32;19.40;71.10
1453;DHT22;720;47.738;7.998;2022-10-31T13:54:33;19.50;70.70
1453;DHT22;720;47.738;7.998;2022-10-31T13:56:59;19.50;70.90
1453;DHT22;720;47.738;7.998;2022-10-31T13:59:27;19.60;87.20
1453;DHT22;720;47.738;7.998;2022-10-31T14:01:59;19.50;72.60
1453;DHT22;720;47.738;7.998;2022-10-31T14:04:38;19.50;71.30
1453;DHT22;720;47.738;7.998;2022-10-31T14:07:17;19.50;73.40
1453;DHT22;720;47.738;7.998;2022-10-31T14:09:59;19.50;73.30
1453;DHT22;720;47.738;7.998;2022-10-31T14:12:38;19.60;73.80
1453;DHT22;720;47.738;7.998;2022-10-31T14:15:17;19.70;72.90
1453;DHT22;720;47.738;7.998;2022-10-31T14:17:50;19.80;73.70
1453;DHT22;720;47.738;7.998;2022-10-31T14:22:42;19.90;73.10
1453;DHT22;720;47.738;7.998;2022-10-31T14:25:43;19.90;73.90
1453;DHT22;720;47.738;7.998;2022-10-31T14:28:32;19.90;78.80
1453;DHT22;720;47.738;7.998;2022-10-31T14:30:59;19.90;77.20
1453;DHT22;720;47.738;7.998;2022-10-31T14:33:29;19.90;76.60
1453;DHT22;720;47.738;7.998;2022-10-31T14:36:12;19.90;76.10
1453;DHT22;720;47.738;7.998;2022-10-31T14:44:23;20.00;78.10
1453;DHT22;720;47.738;7.998;2022-10-31T14:52:53;19.60;76.60
1453;DHT22;720;47.738;7.998;2022-10-31T14:55:20;19.50;75.50
1453;DHT22;720;47.738;7.998;2022-10-31T14:57:54;19.50;74.80
1453;DHT22;720;47.738;7.998;2022-10-31T15:00:22;19.40;74.70
1453;DHT22;720;47.738;7.998;2022-10-31T15:05:35;19.50;71.70
1453;DHT22;720;47.738;7.998;2022-10-31T15:08:14;19.60;72.50
1453;DHT22;720;47.738;7.998;2022-10-31T15:10:44;19.60;73.00
1453;DHT22;720;47.738;7.998;2022-10-31T15:13:18;19.60;74.30
1453;DHT22;720;47.738;7.998;2022-10-31T15:15:44;19.70;75.00
1453;DHT22;720;47.738;7.998;2022-10-31T15:18:24;19.70;75.90
1453;DHT22;720;47.738;7.998;2022-10-31T15:20:50;19.70;76.70
1453;DHT22;720;47.738;7.998;2022-10-31T15:23:22;19.60;77.30
1453;DHT22;720;47.738;7.998;2022-10-31T15:25:48;19.40;78.00
1453;DHT22;720;47.738;7.998;2022-10-31T15:28:19;19.20;79.00
1453;DHT22;720;47.738;7.998;2022-10-31T15:30:54;19.00;79.60
1453;DHT22;720;47.738;7.998;2022-10-31T15:33:26;18.80;80.80
1453;DHT22;720;47.738;7.998;2022-10-31T15:35:59;18.50;80.90
1453;DHT22;720;47.738;7.998;2022-10-31T15:38:26;18.40;81.60
1453;DHT22;720;47.738;7.998;2022-10-31T15:40:59;18.20;81.50
1453;DHT22;720;47.738;7.998;2022-10-31T15:43:29;18.00;82.70
1453;DHT22;720;47.738;7.998;2022-10-31T15:45:58;17.80;83.30
1453;DHT22;720;47.738;7.998;2022-10-31T15:48:24;17.70;84.30
1453;DHT22;720;47.738;7.998;2022-10-31T15:50:55;17.70;85.30
1453;DHT22;720;47.738;7.998;2022-10-31T15:53:26;17.50;86.00
1453;DHT22;720;47.738;7.998;2022-10-31T15:55:57;17.30;87.10
1453;DHT22;720;47.738;7.998;2022-10-31T15:58:24;17.20;87.60
1453;DHT22;720;47.738;7.998;2022-10-31T16:06:25;16.90;88.80
1453;DHT22;720;47.738;7.998;2022-10-31T16:08:51;16.70;89.80
1453;DHT22;720;47.738;7.998;2022-10-31T16:14:17;16.40;89.10
1453;DHT22;720;47.738;7.998;2022-10-31T16:16:46;16.30;89.70
1453;DHT22;720;47.738;7.998;2022-10-31T16:19:35;16.30;90.00
1453;DHT22;720;47.738;7.998;2022-10-31T16:22:33;16.20;90.70
1453;DHT22;720;47.738;7.998;2022-10-31T16:25:14;16.10;91.00
1453;DHT22;720;47.738;7.998;2022-10-31T16:27:46;15.90;91.40
1453;DHT22;720;47.738;7.998;2022-10-31T16:33:04;15.80;91.80
1453;DHT22;720;47.738;7.998;2022-10-31T16:35:35;15.60;91.60
1453;DHT22;720;47.738;7.998;2022-10-31T16:38:01;15.50;91.90
1453;DHT22;720;47.738;7.998;2022-10-31T16:40:27;15.30;92.00
1453;DHT22;720;47.738;7.998;2022-10-31T16:42:53;15.20;92.00
1453;DHT22;720;47.738;7.998;2022-10-31T16:45:24;15.30;92.30
1453;DHT22;720;47.738;7.998;2022-10-31T16:47:50;15.30;92.30
1453;DHT22;720;47.738;7.998;2022-10-31T16:50:25;15.10;93.00
1453;DHT22;720;47.738;7.998;2022-10-31T16:52:51;15.10;92.90
1453;DHT22;720;47.738;7.998;2022-10-31T16:55:18;15.10;93.00
1453;DHT22;720;47.738;7.998;2022-10-31T16:57:47;15.10;93.00
1453;DHT22;720;47.738;7.998;2022-10-31T17:00:17;15.00;92.90
1453;DHT22;720;47.738;7.998;2022-10-31T17:02:45;15.00;92.90
1453;DHT22;720;47.738;7.998;2022-10-31T17:05:16;15.00;92.70
1453;DHT22;720;47.738;7.998;2022-10-31T17:07:42;14.90;93.30
1453;DHT22;720;47.738;7.998;2022-10-31T17:10:09;14.90;93.60
1453;DHT22;720;47.738;7.998;2022-10-31T17:12:36;14.80;93.30
1453;DHT22;720;47.738;7.998;2022-10-31T17:15:03;14.70;93.40
1453;DHT22;720;47.738;7.998;2022-10-31T17:17:29;14.60;93.70
1453;DHT22;720;47.738;7.998;2022-10-31T17:19:54;14.70;93.70
1453;DHT22;720;47.738;7.998;2022-10-31T17:22:20;14.70;93.80
1453;DHT22;720;47.738;7.998;2022-10-31T17:24:45;14.60;94.00
1453;DHT22;720;47.738;7.998;2022-10-31T17:27:11;14.50;94.10
1453;DHT22;720;47.738;7.998;2022-10-31T17:29:37;14.40;99.90
1453;DHT22;720;47.738;7.998;2022-10-31T17:32:02;14.40;94.70
1453;DHT22;720;47.738;7.998;2022-10-31T17:34:29;14.50;95.20
1453;DHT22;720;47.738;7.998;2022-10-31T17:36:54;14.40;94.90
1453;DHT22;720;47.738;7.998;2022-10-31T17:39:20;14.20;99.90
1453;DHT22;720;47.738;7.998;2022-10-31T17:41:51;14.10;94.80
1453;DHT22;720;47.738;7.998;2022-10-31T17:44:17;14.10;95.20
1453;DHT22;720;47.738;7.998;2022-10-31T17:46:44;14.10;95.30
1453;DHT22;720;47.738;7.998;2022-10-31T17:49:13;14.10;95.30
1453;DHT22;720;47.738;7.998;2022-10-31T17:51:38;14.00;95.40
1453;DHT22;720;47.738;7.998;2022-10-31T17:54:04;13.90;95.20
1453;DHT22;720;47.738;7.998;2022-10-31T17:56:31;13.80;95.30
1453;DHT22;720;47.738;7.998;2022-10-31T17:58:56;13.80;95.50
1453;DHT22;720;47.738;7.998;2022-10-31T18:01:22;13.70;95.50
1453;DHT22;720;47.738;7.998;2022-10-31T18:03:48;13.60;95.80
1453;DHT22;720;47.738;7.998;2022-10-31T18:06:14;13.60;96.10
1453;DHT22;720;47.738;7.998;2022-10-31T18:08:42;13.50;96.10
1453;DHT22;720;47.738;7.998;2022-10-31T18:11:11;13.50;96.10
1453;DHT22;720;47.738;7.998;2022-10-31T18:13:38;13.50;96.00
1453;DHT22;720;47.738;7.998;2022-10-31T18:16:12;13.50;96.00
1453;DHT22;720;47.738;7.998;2022-10-31T18:18:39;13.50;96.00
1453;DHT22;720;47.738;7.998;2022-10-31T18:21:05;13.40;96.10
1453;DHT22;720;47.738;7.998;2022-10-31T18:23:31;13.40;96.20
1453;DHT22;720;47.738;7.998;2022-10-31T18:25:57;13.30;96.50
1453;DHT22;720;47.738;7.998;2022-10-31T18:28:22;13.20;96.50
1453;DHT22;720;47.738;7.998;2022-10-31T18:30:48;13.20;96.70
1453;DHT22;720;47.738;7.998;2022-10-31T18:33:14;13.10;96.70
1453;DHT22;720;47.738;7.998;2022-10-31T18:35:40;13.10;96.90
1453;DHT22;720;47.738;7.998;2022-10-31T18:40:33;13.00;96.60
1453;DHT22;720;47.738;7.998;2022-10-31T18:43:00;13.00;96.80
1453;DHT22;720;47.738;7.998;2022-10-31T18:45:26;13.00;96.80
1453;DHT22;720;47.738;7.998;2022-10-31T18:47:51;13.00;96.90
1453;DHT22;720;47.738;7.998;2022-10-31T18:50:17;12.90;97.10
1453;DHT22;720;47.738;7.998;2022-10-31T18:52:43;12.90;97.30
1453;DHT22;720;47.738;7.998;2022-10-31T18:55:09;12.90;97.30